Time;durP1;ratioP1;P1;durP2;ratioP2;P2;SDS_P1;SDS_P2;PMS_P1;PMS_P2;Temp;Humidity;BMP_temperature;BMP_pressure;BME280_temperature;BME280_humidity;BME280_pressure;Samples;Min_cycle;Max_cycle;Signal;HPM_P1;HPM_P2
2024/01/04 03:38:34;;;;;;;8.80;2.45;;;;;;;6.20;100.00;99742.25;5099190;27;20131;-86
2024/01/04 03:41:01;;;;;;;13.33;3.07;;;;;;;6.21;100.00;99752.00;5058720;28;20044;-88
2024/01/04 03:43:27;;;;;;;16.05;3.83;;;;;;;6.22;100.00;99748.28;5078373;28;20427;-88
2024/01/04 04:10:49;;;;;;;13.80;4.83;;;;;;;6.47;100.00;99784.22;5095864;28;20051;-88
2024/01/04 04:57:11;;;;;;;14.77;5.57;;;;;;;6.55;100.00;99844.28;5093855;28;20090;-86
2024/01/04 05:04:35;;;;;;;16.53;5.50;;;;;;;6.53;100.00;99844.50;5092956;28;20370;-87
2024/01/04 06:46:21;;;;;;;11.10;5.22;;;;;;;6.36;100.00;99975.34;5093526;28;20047;-86
2024/01/04 06:48:47;;;;;;;12.52;5.43;;;;;;;6.32;100.00;99974.94;5058230;28;20048;-87
2024/01/04 06:51:13;;;;;;;10.17;4.70;;;;;;;6.28;100.00;99985.28;5058145;28;20032;-87
2024/01/04 06:53:38;;;;;;;17.20;5.30;;;;;;;6.24;100.00;99988.63;5074621;28;20036;-87
2024/01/04 06:56:07;;;;;;;12.80;5.10;;;;;;;6.20;100.00;99990.91;5058535;28;20134;-87
2024/01/04 06:58:33;;;;;;;15.18;4.82;;;;;;;6.19;100.00;99994.63;5075377;28;20099;-87
2024/01/04 07:01:00;;;;;;;15.60;5.13;;;;;;;6.19;100.00;99991.94;5057561;28;20471;-88
2024/01/04 07:03:30;;;;;;;12.43;4.88;;;;;;;6.20;100.00;99998.16;5093389;28;20024;-87
2024/01/04 07:05:55;;;;;;;16.48;5.70;;;;;;;6.22;100.00;100006.88;5075185;28;20063;-87
2024/01/04 07:08:21;;;;;;;14.20;4.33;;;;;;;6.25;100.00;100015.34;5075311;28;20031;-88
2024/01/04 07:10:46;;;;;;;14.57;4.80;;;;;;;6.26;100.00;100019.72;5058275;28;20028;-88
2024/01/04 07:13:12;;;;;;;20.25;5.45;;;;;;;6.28;100.00;100030.28;5074998;28;20286;-87
2024/01/04 07:15:37;;;;;;;17.73;4.67;;;;;;;6.30;100.00;100017.41;5076564;28;20204;-87
2024/01/04 07:18:05;;;;;;;14.23;4.23;;;;;;;6.32;100.00;100026.13;5078939;28;20020;-87
2024/01/04 07:20:32;;;;;;;14.98;4.90;;;;;;;6.34;100.00;100032.13;5062371;28;20043;-86
2024/01/04 07:23:06;;;;;;;21.27;5.20;;;;;;;6.34;100.00;100024.06;5062157;28;20051;-87
2024/01/04 07:25:37;;;;;;;17.75;5.13;;;;;;;6.37;100.00;100026.31;5048092;28;20036;-87
2024/01/04 07:28:10;;;;;;;18.02;5.63;;;;;;;6.37;100.00;100023.63;5062667;28;20044;-87
2024/01/04 07:30:35;;;;;;;18.13;5.40;;;;;;;6.37;100.00;100030.91;5078796;28;20501;-87
2024/01/04 07:33:01;;;;;;;19.73;6.68;;;;;;;6.37;100.00;100030.91;5079433;28;20067;-87
2024/01/04 07:39:28;;;;;;;19.48;6.82;;;;;;;6.32;100.00;100045.00;5096249;28;20043;-87
2024/01/04 07:41:53;;;;;;;26.23;7.53;;;;;;;6.27;100.00;100040.19;5078726;28;20496;-84
2024/01/04 07:44:21;;;;;;;19.90;7.40;;;;;;;6.27;100.00;100044.78;5058563;28;20068;-84
2024/01/04 07:46:46;;;;;;;21.90;7.77;;;;;;;6.23;100.00;100047.06;5042802;28;20025;-86
2024/01/04 07:49:14;;;;;;;23.83;8.32;;;;;;;6.21;100.00;100053.69;5041712;28;20074;-87
2024/01/04 07:55:32;;;;;;;22.38;8.00;;;;;;;6.18;100.00;100070.25;5076084;28;20028;-87
2024/01/04 07:58:45;;;;;;;25.50;7.55;;;;;;;6.17;100.00;100071.28;5058576;28;20180;-87
2024/01/04 08:01:13;;;;;;;20.38;7.30;;;;;;;6.17;100.00;100076.69;5057924;28;20075;-87
2024/01/04 08:03:39;;;;;;;23.10;7.18;;;;;;;6.18;100.00;100086.44;5076934;28;20441;-86
2024/01/04 08:06:08;;;;;;;15.57;6.40;;;;;;;6.20;100.00;100084.34;5041336;28;20439;-85
2024/01/04 08:12:45;;;;;;;23.45;6.30;;;;;;;6.25;100.00;100096.16;5076143;28;20089;-87
2024/01/04 08:15:11;;;;;;;17.33;5.57;;;;;;;6.27;100.00;100095.97;5058000;28;20040;-86
2024/01/04 08:17:37;;;;;;;17.27;5.03;;;;;;;6.28;100.00;100095.75;5041509;28;20042;-86
2024/01/04 08:20:13;;;;;;;15.43;4.45;;;;;;;6.31;100.00;100098.03;5076018;28;20263;-87
2024/01/04 08:26:10;;;;;;;13.10;4.22;;;;;;;6.34;100.00;100104.88;5075893;28;20504;-86
2024/01/04 08:32:05;;;;;;;11.35;3.92;;;;;;;6.38;100.00;100099.91;5075798;28;20175;-86
2024/01/04 08:35:26;;;;;;;15.00;4.00;;;;;;;6.36;100.00;100110.88;5040714;28;20454;-86
2024/01/04 08:37:54;;;;;;;12.75;4.18;;;;;;;6.33;100.00;100116.69;5057747;28;20395;-87
2024/01/04 08:40:20;;;;;;;12.38;4.03;;;;;;;6.33;100.00;100111.28;5024725;28;20043;-87
2024/01/04 08:42:46;;;;;;;10.27;3.40;;;;;;;6.28;100.00;100103.84;5041716;28;20032;-87
2024/01/04 08:45:13;;;;;;;9.40;2.90;;;;;;;6.25;100.00;100120.41;5040954;28;20370;-86
2024/01/04 08:47:41;;;;;;;6.25;2.88;;;;;;;6.23;100.00;100113.56;5057335;28;20029;-86
2024/01/04 08:50:07;;;;;;;8.63;3.00;;;;;;;6.20;100.00;100114.81;5063132;28;20052;-87
2024/01/04 08:52:33;;;;;;;11.52;3.10;;;;;;;6.24;100.00;100115.22;5060144;28;20475;-89
2024/01/04 08:54:59;;;;;;;9.00;3.10;;;;;;;6.23;100.00;100122.50;5076725;28;20062;-87
2024/01/04 08:57:27;;;;;;;9.38;2.67;;;;;;;6.24;100.00;100120.63;5076628;28;20545;-86
2024/01/04 08:59:58;;;;;;;7.00;3.20;;;;;;;6.21;100.00;100131.81;5060260;28;20062;-87
2024/01/04 09:02:23;;;;;;;10.57;2.78;;;;;;;6.23;100.00;100129.72;5076465;28;20538;-86
2024/01/04 09:04:49;;;;;;;6.80;2.60;;;;;;;6.20;100.00;100138.22;5042213;28;20033;-86
2024/01/04 09:07:14;;;;;;;5.60;2.55;;;;;;;6.16;100.00;100140.50;5070474;28;20039;-87
2024/01/04 09:09:40;;;;;;;11.33;2.27;;;;;;;6.18;100.00;100130.34;5050897;28;20411;-86
2024/01/04 09:12:06;;;;;;;6.90;1.90;;;;;;;6.15;100.00;100136.13;5073963;28;20036;-85
2024/01/04 09:14:31;;;;;;;6.22;1.80;;;;;;;6.14;100.00;100137.16;5076723;28;20031;-85
2024/01/04 09:16:57;;;;;;;5.43;1.33;;;;;;;6.16;100.00;100143.19;5056592;28;20036;-87
2024/01/04 09:19:24;;;;;;;6.67;1.70;;;;;;;6.18;100.00;100149.19;5039679;28;20086;-85
2024/01/04 09:21:50;;;;;;;2.40;1.42;;;;;;;6.21;100.00;100145.28;5056570;28;20278;-85
2024/01/04 09:24:17;;;;;;;3.67;1.10;;;;;;;6.24;100.00;100151.06;5039524;28;20024;-86
2024/01/04 09:26:44;;;;;;;4.25;1.80;;;;;;;6.30;100.00;100147.59;5083709;28;20365;-86
2024/01/04 09:29:12;;;;;;;3.90;1.48;;;;;;;6.36;100.00;100153.19;5073980;28;20039;-87
2024/01/04 09:31:39;;;;;;;3.67;1.23;;;;;;;6.42;100.00;100160.44;5044620;28;20036;-85
2024/01/04 09:34:04;;;;;;;5.50;1.40;;;;;;;6.44;100.00;100169.16;5093579;28;20036;-85
2024/01/04 09:36:30;;;;;;;4.00;1.73;;;;;;;6.43;100.00;100168.31;5061595;28;20044;-87
2024/01/04 09:38:55;;;;;;;3.88;1.30;;;;;;;6.45;100.00;100168.09;5038864;28;20036;-86
2024/01/04 09:41:30;;;;;;;4.63;1.43;;;;;;;6.50;100.00;100171.84;5056274;28;20135;-85
2024/01/04 09:43:57;;;;;;;3.95;1.65;;;;;;;6.48;100.00;100182.03;5055867;28;20361;-85
2024/01/04 09:46:32;;;;;;;4.50;1.42;;;;;;;6.49;100.00;100185.53;5055862;28;20029;-86
2024/01/04 09:49:01;;;;;;;5.65;1.75;;;;;;;6.47;100.00;100183.03;5056266;28;20059;-85
2024/01/04 09:51:36;;;;;;;6.55;1.58;;;;;;;6.43;100.00;100186.34;5055979;28;20512;-85
2024/01/04 09:54:11;;;;;;;3.63;1.70;;;;;;;6.42;100.00;100192.78;5056054;28;20054;-85
2024/01/04 09:56:42;;;;;;;4.75;1.40;;;;;;;6.44;100.00;100196.09;5074017;28;20032;-86
2024/01/04 09:59:08;;;;;;;5.97;1.83;;;;;;;6.45;100.00;100201.28;5055962;28;20385;-85
2024/01/04 10:01:36;;;;;;;7.68;2.20;;;;;;;6.43;100.00;100210.63;5055709;28;20028;-85
2024/01/04 10:04:06;;;;;;;3.55;2.00;;;;;;;6.44;100.00;100210.41;5073841;28;20032;-86
2024/01/04 10:06:33;;;;;;;8.55;3.03;;;;;;;6.46;100.00;100212.91;5055499;28;20123;-86
2024/01/04 10:09:31;;;;;;;8.18;2.83;;;;;;;6.46;100.00;100215.59;5040327;28;20029;-86
2024/01/04 10:11:56;;;;;;;5.65;2.45;;;;;;;6.46;100.00;100219.09;5066490;28;20040;-86
2024/01/04 10:14:30;;;;;;;7.20;2.40;;;;;;;6.49;100.00;100225.97;5075434;28;20468;-87
2024/01/04 10:16:59;;;;;;;5.65;2.75;;;;;;;6.50;100.00;100219.53;5075841;28;20376;-86
2024/01/04 10:22:51;;;;;;;5.20;2.50;;;;;;;6.50;100.00;100238.41;5093831;28;20039;-86
2024/01/04 10:25:18;;;;;;;8.02;2.50;;;;;;;6.45;100.00;100222.84;5075670;28;20032;-87
2024/01/04 10:31:48;;;;;;;5.80;1.77;;;;;;;6.37;100.00;100238.38;5031888;28;20137;-86
2024/01/04 10:34:20;;;;;;;3.50;1.73;;;;;;;6.35;100.00;100235.03;5063031;28;20480;-86
2024/01/04 10:36:45;;;;;;;3.97;1.90;;;;;;;6.35;100.00;100235.88;5075667;28;20062;-86
2024/01/04 10:39:19;;;;;;;3.60;1.50;;;;;;;6.34;100.00;100234.22;5094087;28;20046;-87
2024/01/04 10:42:01;;;;;;;2.90;1.30;;;;;;;6.40;100.00;100248.75;5075884;28;20050;-86
2024/01/04 10:44:28;;;;;;;3.50;1.20;;;;;;;6.38;100.00;100237.31;5078181;28;20356;-86
2024/01/04 10:46:57;;;;;;;4.57;1.20;;;;;;;6.39;100.00;100237.16;5093551;28;20054;-86
2024/01/04 10:52:53;;;;;;;6.85;1.35;;;;;;;6.39;100.00;100234.44;5098082;28;20073;-87
2024/01/04 10:58:51;;;;;;;4.38;1.00;;;;;;;6.49;100.00;100237.56;5097520;28;20031;-87
2024/01/04 11:04:57;;;;;;;2.50;0.93;;;;;;;6.68;100.00;100238.63;5016686;28;20165;-86
2024/01/04 11:10:52;;;;;;;4.27;1.00;;;;;;;6.91;100.00;100242.84;5059051;28;20051;-87
2024/01/04 11:13:18;;;;;;;3.65;1.10;;;;;;;6.85;100.00;100244.50;5079156;28;20032;-87
2024/01/04 11:15:44;;;;;;;2.40;1.17;;;;;;;6.75;100.00;100254.84;5079141;28;20032;-87
2024/01/04 11:18:15;;;;;;;5.65;1.05;;;;;;;6.75;100.00;100257.53;5078834;28;20053;-87
2024/01/04 11:31:00;;;;;;;3.60;0.60;;;;;;;6.65;100.00;100244.44;5035062;28;20075;-88
2024/01/04 11:48:11;;;;;;;4.38;0.80;;;;;;;6.45;100.00;100257.03;5033082;28;20433;-87
2024/01/04 12:05:07;;;;;;;19.48;7.60;;;;;;;7.15;100.00;100251.34;4975503;28;20062;-87
2024/01/04 12:07:35;;;;;;;26.50;7.60;;;;;;;7.13;100.00;100248.88;4975618;28;20054;-86
2024/01/04 12:10:01;;;;;;;25.65;8.73;;;;;;;7.11;100.00;100242.84;4958811;28;20031;-87
2024/01/04 12:12:28;;;;;;;28.73;9.47;;;;;;;7.10;100.00;100245.75;4959114;28;20083;-88
2024/01/04 12:15:40;;;;;;;28.38;10.07;;;;;;;7.16;100.00;100245.75;4942742;28;20142;-87
2024/01/04 12:21:33;;;;;;;43.47;11.30;;;;;;;7.53;100.00;100239.91;4975278;28;20060;-85
2024/01/04 12:27:29;;;;;;;41.13;11.98;;;;;;;7.48;100.00;100243.22;4975117;28;20045;-86
2024/01/04 12:33:19;;;;;;;38.30;10.43;;;;;;;7.38;100.00;100240.13;4988818;28;20512;-86
2024/01/04 12:35:47;;;;;;;45.17;10.75;;;;;;;7.24;100.00;100238.50;5016748;28;20071;-87
2024/01/04 12:38:12;;;;;;;40.17;10.75;;;;;;;7.14;100.00;100239.72;5016199;28;20432;-86
2024/01/04 12:40:45;;;;;;;46.05;12.10;;;;;;;7.11;100.00;100244.72;5032739;28;20038;-86
2024/01/04 12:43:14;;;;;;;42.17;10.33;;;;;;;7.07;100.00;100230.81;5046632;28;20431;-85
2024/01/04 12:45:42;;;;;;;41.72;12.27;;;;;;;7.07;100.00;100246.16;5073275;28;20046;-86
2024/01/04 12:48:12;;;;;;;42.47;11.25;;;;;;;7.08;100.00;100243.25;5074391;28;20025;-87
2024/01/04 12:50:38;;;;;;;40.45;11.32;;;;;;;7.16;100.00;100248.44;5077152;28;20032;-86
2024/01/04 12:53:07;;;;;;;44.47;12.90;;;;;;;7.29;100.00;100233.28;5076698;28;20472;-87
2024/01/04 12:55:36;;;;;;;47.38;12.45;;;;;;;7.32;100.00;100228.31;5076888;28;20038;-86
2024/01/04 12:58:02;;;;;;;46.00;12.15;;;;;;;7.33;100.00;100239.94;5076888;28;20024;-86
2024/01/04 13:00:27;;;;;;;42.92;10.80;;;;;;;7.32;100.00;100246.34;5076866;28;20430;-86
2024/01/04 13:02:53;;;;;;;41.57;10.50;;;;;;;7.28;100.00;100237.84;5076572;28;20024;-88
2024/01/04 13:05:24;;;;;;;39.13;11.63;;;;;;;7.22;100.00;100240.56;5077064;28;20032;-86
2024/01/04 13:07:57;;;;;;;38.85;10.23;;;;;;;7.18;100.00;100237.44;5076548;28;20138;-87
2024/01/04 13:10:23;;;;;;;33.63;9.68;;;;;;;7.17;100.00;100225.81;5076667;28;20139;-86
2024/01/04 13:12:55;;;;;;;43.90;10.17;;;;;;;7.13;100.00;100240.78;5076362;28;20067;-87
2024/01/04 13:15:26;;;;;;;35.90;10.23;;;;;;;7.15;100.00;100244.09;5094594;28;20028;-86
2024/01/04 13:17:57;;;;;;;35.28;10.40;;;;;;;7.17;100.00;100243.88;5076229;28;20063;-85
2024/01/04 13:20:25;;;;;;;44.17;10.10;;;;;;;7.20;100.00;100254.25;5060240;28;20036;-86
2024/01/04 13:22:50;;;;;;;36.88;9.98;;;;;;;7.22;100.00;100249.50;5076118;28;20028;-86
2024/01/04 13:25:16;;;;;;;32.85;9.95;;;;;;;7.27;100.00;100249.69;5076631;28;20043;-86
2024/01/04 13:27:41;;;;;;;36.23;10.77;;;;;;;7.35;100.00;100241.38;5059508;28;20067;-86
2024/01/04 13:30:12;;;;;;;38.40;10.47;;;;;;;7.62;100.00;100241.34;5075944;28;20047;-87
2024/01/04 13:32:40;;;;;;;36.50;11.60;;;;;;;8.60;100.00;100243.06;5060282;28;20388;-86
2024/01/04 13:35:10;;;;;;;46.78;12.45;;;;;;;9.31;100.00;100237.53;5076415;28;20042;-87
2024/01/04 13:37:36;;;;;;;37.70;11.80;;;;;;;9.83;100.00;100229.09;5043371;28;20030;-87
2024/01/04 13:40:03;;;;;;;28.90;8.77;;;;;;;9.54;100.00;100231.50;5076633;28;20032;-87
2024/01/04 13:42:29;;;;;;;28.35;7.93;;;;;;;9.27;100.00;100222.78;5075882;28;20039;-87
2024/01/04 13:44:57;;;;;;;23.20;7.33;;;;;;;9.19;100.00;100231.22;5066271;28;20515;-88
2024/01/04 13:47:23;;;;;;;21.35;7.18;;;;;;;9.14;100.00;100234.59;5055739;28;20020;-87
2024/01/04 13:49:48;;;;;;;24.43;6.97;;;;;;;9.20;100.00;100224.75;5067202;28;20062;-86
2024/01/04 13:52:14;;;;;;;19.23;6.50;;;;;;;9.41;100.00;100228.94;5075624;28;20372;-86
2024/01/04 13:54:41;;;;;;;23.63;7.25;;;;;;;9.49;100.00;100225.91;5058390;28;20062;-86
2024/01/04 13:57:07;;;;;;;19.98;7.20;;;;;;;9.86;100.00;100219.72;5075625;28;20111;-86
2024/01/04 13:59:33;;;;;;;20.45;6.80;;;;;;;10.29;100.00;100218.75;5075389;28;20078;-87
2024/01/04 14:01:59;;;;;;;16.38;6.63;;;;;;;10.76;100.00;100218.94;5075622;28;20028;-87
2024/01/04 14:04:25;;;;;;;19.67;6.20;;;;;;;11.24;100.00;100230.72;5075373;28;20031;-86
2024/01/04 14:06:50;;;;;;;19.85;5.95;;;;;;;11.57;100.00;100229.31;5055274;28;20032;-88
2024/01/04 14:09:18;;;;;;;19.07;5.20;;;;;;;11.61;100.00;100238.66;5089019;28;20483;-87
2024/01/04 14:11:46;;;;;;;17.85;5.15;;;;;;;11.51;100.00;100231.06;5021916;28;20079;-88
2024/01/04 14:14:14;;;;;;;16.20;5.65;;;;;;;11.79;100.00;100236.88;5074908;28;20410;-88
2024/01/04 14:16:42;;;;;;;16.45;5.43;;;;;;;11.77;100.00;100228.94;5074091;28;20492;-87
2024/01/04 14:19:10;;;;;;;16.70;5.80;;;;;;;11.22;100.00;100224.72;5057442;28;20074;-88
2024/01/04 14:21:36;;;;;;;18.48;5.63;;;;;;;10.66;100.00;100224.97;5074522;28;20540;-87
2024/01/04 14:24:03;;;;;;;17.30;5.82;;;;;;;10.27;100.00;100239.84;5074972;28;20127;-87
2024/01/04 14:26:28;;;;;;;16.47;5.97;;;;;;;9.94;100.00;100224.84;5073897;28;20028;-90
2024/01/04 14:28:57;;;;;;;17.33;6.10;;;;;;;9.75;100.00;100234.84;5057705;28;20046;-87
2024/01/04 14:31:23;;;;;;;20.80;5.53;;;;;;;9.56;100.00;100234.00;5093069;28;20028;-88
2024/01/04 14:33:49;;;;;;;18.70;5.30;;;;;;;9.56;100.00;100237.50;5074910;28;20035;-86
2024/01/04 14:36:15;;;;;;;17.63;5.68;;;;;;;9.80;100.00;100235.81;5074869;28;20585;-81
2024/01/04 14:38:40;;;;;;;17.80;5.53;;;;;;;9.76;100.00;100245.44;5058264;28;20036;-82
2024/01/04 14:41:09;;;;;;;22.10;5.87;;;;;;;9.46;100.00;100239.91;5093003;28;20410;-86
2024/01/04 14:43:38;;;;;;;13.77;5.20;;;;;;;9.22;100.00;100247.00;5074966;28;20020;-86
2024/01/04 14:46:04;;;;;;;19.10;5.75;;;;;;;9.00;100.00;100251.97;5058102;28;20038;-86
2024/01/04 14:48:29;;;;;;;21.97;5.27;;;;;;;8.70;100.00;100255.28;5058353;28;20392;-87
2024/01/04 14:50:57;;;;;;;19.30;5.07;;;;;;;8.54;100.00;100253.91;5075207;28;20040;-87
2024/01/04 14:53:26;;;;;;;16.83;4.60;;;;;;;8.46;100.00;100257.72;5058589;28;20054;-86
2024/01/04 14:55:54;;;;;;;17.35;4.80;;;;;;;8.40;100.00;100253.97;5058275;28;20028;-86
2024/01/04 14:58:25;;;;;;;18.45;4.63;;;;;;;8.33;100.00;100253.16;5057939;28;20102;-87
2024/01/04 15:00:53;;;;;;;22.90;5.30;;;;;;;8.34;100.00;100254.81;5075029;28;20072;-87
2024/01/04 15:03:21;;;;;;;17.13;4.57;;;;;;;8.30;100.00;100253.59;5075096;28;20028;-87
2024/01/04 15:05:49;;;;;;;15.85;4.65;;;;;;;8.33;100.00;100255.03;5074931;28;20024;-87
2024/01/04 15:08:19;;;;;;;21.48;4.43;;;;;;;8.33;100.00;100255.03;5044720;28;20036;-86
2024/01/04 15:10:47;;;;;;;15.82;5.00;;;;;;;8.30;100.00;100255.44;5038834;28;20039;-87
2024/01/04 15:13:16;;;;;;;14.23;3.90;;;;;;;8.22;100.00;100254.69;5054795;28;20059;-86
2024/01/04 15:15:41;;;;;;;17.75;4.65;;;;;;;8.18;100.00;100256.13;5071488;28;20041;-86
2024/01/04 15:18:15;;;;;;;21.30;4.93;;;;;;;8.13;100.00;100263.22;5038427;28;20048;-87
2024/01/04 15:20:40;;;;;;;19.87;5.20;;;;;;;8.00;100.00;100261.38;5055116;28;20029;-86
2024/01/04 15:23:09;;;;;;;18.00;4.53;;;;;;;7.94;100.00;100257.66;5072768;28;20055;-87
2024/01/04 15:25:37;;;;;;;23.25;4.95;;;;;;;7.82;100.00;100262.06;5071487;28;20031;-86
2024/01/04 15:28:04;;;;;;;22.30;4.45;;;;;;;7.72;100.00;100265.19;5054879;28;20123;-86
2024/01/04 15:30:30;;;;;;;17.30;4.93;;;;;;;7.55;100.00;100268.34;5054423;28;20132;-87
2024/01/04 15:32:58;;;;;;;23.42;4.30;;;;;;;7.46;100.00;100266.91;5054589;28;20115;-86
2024/01/04 15:35:23;;;;;;;16.13;4.00;;;;;;;7.28;100.00;100272.09;5061207;28;20398;-86
2024/01/04 15:37:54;;;;;;;14.43;3.30;;;;;;;7.15;100.00;100262.97;5077339;28;20039;-86
2024/01/04 15:40:27;;;;;;;15.98;3.60;;;;;;;7.06;100.00;100272.31;5061673;28;20044;-87
2024/01/04 15:42:55;;;;;;;22.40;3.20;;;;;;;6.94;100.00;100268.53;5072801;28;20471;-86
2024/01/04 15:45:20;;;;;;;15.13;3.70;;;;;;;6.85;100.00;100265.25;5095949;28;20070;-87
2024/01/04 15:47:46;;;;;;;14.55;3.35;;;;;;;6.75;100.00;100271.03;5077800;28;20028;-87
2024/01/04 15:50:18;;;;;;;27.03;4.10;;;;;;;6.66;100.00;100269.56;5057791;28;20405;-86
2024/01/04 15:52:43;;;;;;;14.00;3.38;;;;;;;6.58;100.00;100269.72;5071184;28;20047;-86
2024/01/04 15:55:12;;;;;;;14.63;3.23;;;;;;;6.51;100.00;100275.13;5066489;28;20036;-86
2024/01/04 15:57:39;;;;;;;15.50;2.92;;;;;;;6.43;100.00;100272.59;5075161;28;20032;-87
2024/01/04 16:00:05;;;;;;;13.68;2.40;;;;;;;6.37;100.00;100266.13;5067490;28;20032;-87
2024/01/04 16:02:34;;;;;;;20.90;2.95;;;;;;;6.30;100.00;100260.75;5065148;28;20032;-87
2024/01/04 16:05:08;;;;;;;11.57;2.00;;;;;;;6.28;100.00;100259.28;5057643;28;20522;-87
2024/01/04 16:07:37;;;;;;;18.98;2.47;;;;;;;6.24;100.00;100258.81;5074931;28;20035;-87
2024/01/04 16:10:03;;;;;;;23.15;2.90;;;;;;;6.20;100.00;100259.44;5067111;28;20036;-86
2024/01/04 16:12:31;;;;;;;13.27;3.15;;;;;;;6.18;100.00;100259.63;5070501;28;20036;-87
2024/01/04 16:15:00;;;;;;;15.60;3.65;;;;;;;6.19;100.00;100260.50;5063073;28;20036;-86
2024/01/04 16:17:31;;;;;;;18.87;2.60;;;;;;;6.18;100.00;100261.50;5083575;28;20032;-87
2024/01/04 16:19:57;;;;;;;17.80;3.28;;;;;;;6.19;100.00;100261.31;5094423;28;20039;-87
2024/01/04 16:22:27;;;;;;;19.03;2.60;;;;;;;6.20;100.00;100264.81;5077303;28;20029;-87
2024/01/04 16:24:52;;;;;;;21.65;2.92;;;;;;;6.19;100.00;100260.50;5061586;28;20309;-87
2024/01/04 16:27:23;;;;;;;17.80;2.50;;;;;;;6.18;100.00;100273.09;5066261;28;20028;-87
2024/01/04 16:29:48;;;;;;;18.50;2.83;;;;;;;6.12;100.00;100258.56;5057913;28;20029;-86
2024/01/04 16:32:16;;;;;;;16.17;2.50;;;;;;;6.11;100.00;100262.31;5049908;28;20043;-87
2024/01/04 16:34:49;;;;;;;14.57;2.58;;;;;;;6.08;100.00;100264.56;5060783;28;20039;-86
2024/01/04 16:37:17;;;;;;;12.18;2.22;;;;;;;6.05;100.00;100273.88;5077334;28;20380;-87
2024/01/04 16:39:43;;;;;;;17.70;2.78;;;;;;;6.02;100.00;100263.50;5072521;28;20037;-87
2024/01/04 16:42:16;;;;;;;18.52;2.47;;;;;;;6.03;100.00;100275.13;5048049;28;20456;-86
2024/01/04 16:44:42;;;;;;;23.10;3.17;;;;;;;6.02;100.00;100265.38;5069661;28;20051;-88
2024/01/04 16:47:10;;;;;;;18.25;2.30;;;;;;;6.02;100.00;100252.72;5068875;28;20032;-87
2024/01/04 16:49:36;;;;;;;19.25;2.22;;;;;;;6.05;100.00;100260.41;5088365;28;20067;-87
2024/01/04 16:52:06;;;;;;;17.87;2.80;;;;;;;6.06;100.00;100256.69;5087796;28;20524;-86
2024/01/04 16:54:33;;;;;;;16.15;2.08;;;;;;;6.08;100.00;100256.50;5076628;28;20032;-87
2024/01/04 16:56:58;;;;;;;22.73;2.33;;;;;;;6.12;100.00;100255.06;5076752;28;20044;-87
2024/01/04 16:59:29;;;;;;;17.37;2.40;;;;;;;6.11;100.00;100250.69;5076772;28;20043;-86
2024/01/04 17:01:55;;;;;;;18.85;2.60;;;;;;;6.11;100.00;100256.09;5076444;28;20028;-87
2024/01/04 17:04:20;;;;;;;20.30;2.87;;;;;;;6.10;100.00;100247.19;5077259;28;20197;-86
2024/01/04 17:06:48;;;;;;;16.75;2.40;;;;;;;6.09;100.00;100250.91;5062866;28;20040;-87
2024/01/04 17:09:13;;;;;;;17.00;2.90;;;;;;;6.10;100.00;100249.88;5047703;28;20040;-86
2024/01/04 17:11:39;;;;;;;18.25;2.92;;;;;;;6.09;100.00;100242.81;5076760;28;20054;-87
2024/01/04 17:14:12;;;;;;;12.20;2.80;;;;;;;6.08;100.00;100243.88;5094816;28;20103;-87
2024/01/04 17:16:40;;;;;;;15.30;2.95;;;;;;;6.09;100.00;100245.50;5076812;28;20387;-88
2024/01/04 17:19:10;;;;;;;19.80;2.78;;;;;;;6.04;100.00;100234.53;5059817;28;20045;-87
2024/01/04 17:21:41;;;;;;;14.75;2.47;;;;;;;6.02;100.00;100243.81;5059571;28;20093;-86
2024/01/04 17:24:07;;;;;;;13.15;2.28;;;;;;;6.04;100.00;100253.38;5076454;28;20032;-87
2024/01/04 17:26:38;;;;;;;20.60;3.10;;;;;;;6.06;100.00;100247.78;5075679;28;20554;-87
2024/01/04 17:29:03;;;;;;;12.68;2.22;;;;;;;6.12;100.00;100246.97;5066455;28;20021;-86
2024/01/04 17:31:29;;;;;;;20.73;3.13;;;;;;;6.10;100.00;100243.66;5039747;28;20124;-87
2024/01/04 17:34:04;;;;;;;16.05;3.45;;;;;;;6.09;100.00;100244.69;5065784;28;20388;-87
2024/01/04 17:36:32;;;;;;;24.30;3.40;;;;;;;6.07;100.00;100244.06;5050988;28;20048;-87
2024/01/04 17:38:59;;;;;;;21.90;3.72;;;;;;;6.10;100.00;100240.97;5055250;28;20483;-87
2024/01/04 17:41:32;;;;;;;14.85;2.38;;;;;;;6.09;100.00;100240.13;5055564;28;20045;-88
2024/01/04 17:44:04;;;;;;;13.30;2.58;;;;;;;6.07;100.00;100236.81;5056587;28;20048;-87
2024/01/04 17:46:29;;;;;;;15.75;3.40;;;;;;;6.07;100.00;100227.91;5075613;28;20067;-87
2024/01/04 17:48:56;;;;;;;19.70;4.15;;;;;;;6.07;100.00;100225.22;5058777;28;20145;-88
2024/01/04 17:51:22;;;;;;;23.15;3.33;;;;;;;6.06;100.00;100218.16;5081614;28;20035;-87
2024/01/04 17:53:48;;;;;;;24.17;3.27;;;;;;;6.07;100.00;100211.75;5069195;28;20082;-87
2024/01/04 17:56:15;;;;;;;15.60;3.80;;;;;;;6.03;100.00;100200.53;5067079;28;20040;-87
2024/01/04 17:58:42;;;;;;;20.58;3.78;;;;;;;6.03;100.00;100197.84;5093243;28;20039;-86
2024/01/04 18:01:10;;;;;;;25.75;3.67;;;;;;;6.04;100.00;100201.34;5074235;28;20028;-86
2024/01/04 18:03:39;;;;;;;17.35;4.45;;;;;;;6.02;100.00;100203.44;5055904;28;20123;-88
2024/01/04 18:06:06;;;;;;;23.20;3.80;;;;;;;6.02;100.00;100200.75;5051528;28;20044;-89
2024/01/04 18:08:38;;;;;;;18.85;4.00;;;;;;;6.05;100.00;100208.41;5062128;28;20027;-87
2024/01/04 18:11:07;;;;;;;18.23;3.92;;;;;;;6.06;100.00;100204.69;5075206;28;20054;-87
2024/01/04 18:13:36;;;;;;;18.25;3.70;;;;;;;6.07;100.00;100217.16;5058297;28;20036;-86
2024/01/04 18:16:02;;;;;;;15.50;3.63;;;;;;;6.10;100.00;100208.66;5075267;28;20415;-87
2024/01/04 18:18:30;;;;;;;15.60;3.97;;;;;;;6.11;100.00;100203.06;5042283;28;20028;-87
2024/01/04 18:20:56;;;;;;;18.23;3.75;;;;;;;6.13;100.00;100200.16;5055337;28;20036;-87
2024/01/04 18:23:21;;;;;;;18.00;3.78;;;;;;;6.16;100.00;100197.06;5071389;28;20031;-87
2024/01/04 18:25:55;;;;;;;17.37;3.63;;;;;;;6.16;100.00;100194.38;5064932;28;20024;-87
2024/01/04 18:28:21;;;;;;;19.73;4.32;;;;;;;6.18;100.00;100176.13;5076909;28;20024;-88
2024/01/04 18:30:52;;;;;;;16.52;3.38;;;;;;;6.19;100.00;100185.06;5074779;28;20032;-87
2024/01/04 18:33:18;;;;;;;16.03;3.83;;;;;;;6.22;100.00;100196.25;5086462;28;20036;-87
2024/01/04 18:35:45;;;;;;;16.02;3.10;;;;;;;6.26;100.00;100202.06;5092555;28;20020;-86
2024/01/04 18:38:10;;;;;;;14.67;3.33;;;;;;;6.28;100.00;100194.63;5064416;28;20106;-86
2024/01/04 18:40:36;;;;;;;24.80;3.92;;;;;;;6.31;100.00;100200.41;5041690;28;20060;-88
2024/01/04 18:43:07;;;;;;;21.10;3.77;;;;;;;6.29;100.00;100199.81;5064172;28;20086;-87
2024/01/04 18:45:36;;;;;;;14.57;2.78;;;;;;;6.31;100.00;100196.91;5072677;28;20024;-87
2024/01/04 18:48:04;;;;;;;19.27;3.03;;;;;;;6.34;100.00;100192.97;5074738;28;20034;-88
2024/01/04 18:50:29;;;;;;;19.60;3.42;;;;;;;6.34;100.00;100188.41;5055359;28;20048;-86
2024/01/04 18:52:57;;;;;;;20.65;3.58;;;;;;;6.39;100.00;100198.56;5066440;28;20036;-87
2024/01/04 18:55:27;;;;;;;16.53;3.87;;;;;;;6.41;100.00;100196.53;5061320;28;20085;-88
2024/01/04 18:57:57;;;;;;;15.45;3.35;;;;;;;6.44;100.00;100191.53;5074891;28;20035;-88
2024/01/04 19:00:25;;;;;;;16.95;3.67;;;;;;;6.49;100.00;100196.31;5058412;28;20054;-88
2024/01/04 19:02:50;;;;;;;17.55;4.47;;;;;;;6.50;100.00;100188.03;5060587;28;20077;-91
2024/01/04 19:05:20;;;;;;;21.83;4.83;;;;;;;6.53;100.00;100185.97;5079934;28;20032;-87
2024/01/04 19:07:47;;;;;;;15.23;4.32;;;;;;;6.57;100.00;100184.50;5079407;28;20108;-88
2024/01/04 19:10:16;;;;;;;21.77;4.55;;;;;;;6.58;100.00;100173.50;5074576;28;20032;-88
2024/01/04 19:12:41;;;;;;;19.02;4.72;;;;;;;6.60;100.00;100170.59;5077662;28;20043;-86
2024/01/04 19:15:10;;;;;;;16.70;4.60;;;;;;;6.59;100.00;100172.50;5078114;28;20031;-87
2024/01/04 19:17:36;;;;;;;16.85;4.15;;;;;;;6.61;100.00;100164.19;5052845;28;20032;-87
2024/01/04 19:20:09;;;;;;;17.10;4.30;;;;;;;6.60;100.00;100165.22;5064578;28;20024;-87
2024/01/04 19:22:37;;;;;;;18.15;4.10;;;;;;;6.62;100.00;100165.88;5074964;28;20032;-88